Time;durP1;ratioP1;P1;durP2;ratioP2;P2;SDS_P1;SDS_P2;PMS_P1;PMS_P2;Temp;Humidity;BMP_temperature;BMP_pressure;BME280_temperature;BME280_humidity;BME280_pressure;Samples;Min_cycle;Max_cycle;Signal;HPM_P1;HPM_P2
2023/07/09 00:00:18;;;;;;;11.55;8.65;;;512.30;2380.80;;;;;;5093702;28;20379;-81
2023/07/09 00:02:44;;;;;;;15.40;8.27;;;512.20;2380.80;;;;;;5095836;28;20387;-81
2023/07/09 00:05:16;;;;;;;9.75;7.45;;;512.00;2380.80;;;;;;5095465;28;20027;-81
2023/07/09 00:07:43;;;;;;;13.25;8.73;;;512.00;2380.80;;;;;;5093975;28;20123;-81
2023/07/09 00:10:17;;;;;;;12.90;8.63;;;512.00;2380.80;;;;;;5094084;28;20052;-81
2023/07/09 00:12:43;;;;;;;13.18;8.30;;;487.30;2380.80;;;;;;5093979;28;20424;-80
2023/07/09 00:15:11;;;;;;;10.70;8.68;;;487.30;2380.80;;;;;;5093582;28;20128;-80
2023/07/09 00:17:39;;;;;;;11.18;7.63;;;487.20;2380.80;;;;;;5093983;28;20031;-82
2023/07/09 00:20:11;;;;;;;10.93;7.72;;;487.10;2380.80;;;;;;5094874;28;20480;-81
2023/07/09 00:22:37;;;;;;;11.93;8.20;;;487.10;2380.80;;;;;;5093994;28;20026;-80
2023/07/09 00:25:04;;;;;;;10.18;7.43;;;487.00;2380.80;;;;;;5094362;28;20123;-80
2023/07/09 00:27:30;;;;;;;12.82;7.88;;;487.10;2380.80;;;;;;5093766;28;20028;-81
2023/07/09 00:29:56;;;;;;;12.95;7.75;;;487.00;2380.80;;;;;;5091069;28;20050;-81
2023/07/09 00:32:22;;;;;;;10.02;7.13;;;487.00;2380.80;;;;;;5073463;28;20362;-81
2023/07/09 00:34:48;;;;;;;10.57;7.30;;;487.00;2380.80;;;;;;5073494;28;20051;-82
2023/07/09 00:37:21;;;;;;;12.60;7.82;;;487.00;2380.80;;;;;;5073891;28;20473;-81
2023/07/09 00:39:48;;;;;;;11.60;8.45;;;487.00;2380.80;;;;;;5073770;28;20064;-81
2023/07/09 00:42:20;;;;;;;19.90;8.60;;;486.80;2380.80;;;;;;5073118;28;20115;-81
2023/07/09 00:44:51;;;;;;;11.48;8.20;;;486.80;2380.80;;;;;;5074339;28;20021;-81
2023/07/09 00:47:53;;;;;;;12.45;8.00;;;486.80;2380.80;;;;;;5073228;28;20054;-81
2023/07/09 00:50:50;;;;;;;10.63;7.03;;;486.80;2380.80;;;;;;5072985;28;20063;-81
2023/07/09 00:53:31;;;;;;;11.98;7.60;;;486.70;2380.80;;;;;;5073186;28;20025;-81
2023/07/09 00:56:06;;;;;;;10.05;7.40;;;486.60;2380.80;;;;;;5072949;28;20786;-82
2023/07/09 00:58:33;;;;;;;17.80;8.10;;;486.50;2380.80;;;;;;5074416;28;20048;-81
2023/07/09 01:01:06;;;;;;;10.45;7.90;;;486.60;2380.80;;;;;;5089430;28;20047;-80
2023/07/09 01:03:36;;;;;;;10.93;7.93;;;486.50;2380.80;;;;;;5092520;28;20375;-81
2023/07/09 01:06:03;;;;;;;11.60;7.80;;;486.50;2380.80;;;;;;5092849;28;20032;-81
2023/07/09 01:08:34;;;;;;;10.07;8.00;;;486.50;2380.80;;;;;;5094038;28;20028;-81
2023/07/09 01:11:00;;;;;;;8.25;6.85;;;486.40;2380.80;;;;;;5093109;28;20465;-81
2023/07/09 01:13:27;;;;;;;8.73;7.18;;;461.70;2380.80;;;;;;5093234;28;20032;-81
2023/07/09 01:15:55;;;;;;;14.35;8.38;;;461.70;2380.80;;;;;;5093341;28;20071;-81
2023/07/09 01:18:24;;;;;;;10.90;7.70;;;461.50;2380.80;;;;;;5093214;28;20114;-80
2023/07/09 01:20:52;;;;;;;12.57;8.30;;;486.40;2380.80;;;;;;5093008;28;20077;-83
2023/07/09 01:23:18;;;;;;;10.30;7.13;;;461.70;2380.80;;;;;;5094789;28;20057;-81
2023/07/09 01:25:52;;;;;;;9.57;7.10;;;461.70;2380.80;;;;;;5092778;28;20024;-80
2023/07/09 01:28:18;;;;;;;12.43;8.15;;;461.70;2380.80;;;;;;5092926;28;20035;-80
2023/07/09 01:30:45;;;;;;;9.43;7.70;;;461.70;2380.80;;;;;;5092928;28;20451;-81
2023/07/09 01:33:11;;;;;;;8.75;6.43;;;461.70;2380.80;;;;;;5093256;28;20031;-82
2023/07/09 01:35:42;;;;;;;10.23;7.35;;;461.60;2380.80;;;;;;5110232;28;20028;-80
2023/07/09 01:38:08;;;;;;;10.68;7.60;;;461.60;2380.80;;;;;;5095646;28;20020;-81
2023/07/09 01:40:35;;;;;;;13.48;8.65;;;461.50;2380.80;;;;;;5093962;28;20035;-82
2023/07/09 01:43:06;;;;;;;10.77;7.20;;;461.60;2380.80;;;;;;5093071;28;20115;-82
2023/07/09 01:45:34;;;;;;;11.95;7.00;;;461.60;2380.80;;;;;;5094158;28;20020;-82
2023/07/09 01:48:02;;;;;;;13.85;6.82;;;461.50;2380.80;;;;;;5094409;28;20102;-82
2023/07/09 01:50:28;;;;;;;13.57;7.25;;;461.60;2380.80;;;;;;5095300;28;20024;-82
2023/07/09 01:52:55;;;;;;;9.82;7.40;;;461.50;2380.80;;;;;;5101360;28;20451;-82
2023/07/09 01:55:21;;;;;;;9.85;7.25;;;461.50;2380.80;;;;;;5104738;28;20056;-82
2023/07/09 01:57:48;;;;;;;10.35;7.53;;;461.40;2380.80;;;;;;5105303;28;20077;-81
2023/07/09 02:00:16;;;;;;;8.40;7.13;;;461.30;2380.80;;;;;;5101063;28;20028;-81
2023/07/09 02:02:43;;;;;;;9.52;7.15;;;461.20;2380.80;;;;;;5096947;28;20024;-81
2023/07/09 02:05:11;;;;;;;8.50;7.22;;;461.20;2380.80;;;;;;5102708;28;20026;-82
2023/07/09 02:07:37;;;;;;;12.77;7.57;;;461.20;2380.80;;;;;;5102055;28;20020;-82
2023/07/09 02:10:04;;;;;;;13.60;7.50;;;461.30;2380.80;;;;;;5100363;28;20048;-82
2023/07/09 02:12:30;;;;;;;10.02;7.35;;;461.20;2380.80;;;;;;5101515;28;20025;-81
2023/07/09 02:14:56;;;;;;;9.50;7.35;;;461.20;2380.80;;;;;;5105781;28;20035;-82
2023/07/09 02:17:21;;;;;;;11.85;6.65;;;461.30;2380.80;;;;;;5117945;28;20029;-81
2023/07/09 02:19:47;;;;;;;7.68;6.72;;;461.20;2380.80;;;;;;5121215;28;20035;-81
2023/07/09 02:22:13;;;;;;;10.63;7.30;;;461.20;2380.80;;;;;;5122058;28;20012;-82
2023/07/09 02:24:39;;;;;;;11.68;7.00;;;461.10;2380.80;;;;;;5121920;28;20008;-81
2023/07/09 02:27:07;;;;;;;9.80;7.60;;;461.20;2380.80;;;;;;5121348;28;20020;-82
2023/07/09 02:29:33;;;;;;;9.93;7.38;;;461.00;2380.80;;;;;;5121008;28;20008;-82
2023/07/09 02:32:00;;;;;;;10.10;7.10;;;461.10;2380.80;;;;;;5121350;28;20014;-81
2023/07/09 02:34:27;;;;;;;11.88;7.68;;;461.10;2380.80;;;;;;5121845;28;20004;-82
2023/07/09 02:36:54;;;;;;;11.00;7.28;;;461.20;2380.80;;;;;;5121426;28;20012;-82
2023/07/09 02:39:21;;;;;;;12.88;7.10;;;461.20;2380.80;;;;;;5107525;28;20460;-82
2023/07/09 02:41:47;;;;;;;17.65;7.47;;;461.20;2380.80;;;;;;5095551;28;20464;-82
2023/07/09 02:44:13;;;;;;;9.20;7.43;;;461.10;2380.80;;;;;;5095795;28;20036;-82
2023/07/09 02:46:39;;;;;;;8.80;7.32;;;461.00;2380.80;;;;;;5095785;28;20478;-82
2023/07/09 02:49:06;;;;;;;8.68;7.57;;;460.90;2380.80;;;;;;5096606;28;20030;-82
2023/07/09 02:51:33;;;;;;;11.32;6.88;;;460.90;2380.80;;;;;;5095562;28;20399;-82
2023/07/09 02:54:01;;;;;;;9.27;6.95;;;460.90;2380.80;;;;;;5095589;28;20028;-82
2023/07/09 02:56:28;;;;;;;9.23;7.43;;;461.00;2380.80;;;;;;5092184;28;20028;-82
2023/07/09 02:58:53;;;;;;;9.60;6.68;;;461.00;2380.80;;;;;;5094102;28;20020;-82
2023/07/09 03:01:24;;;;;;;10.93;7.20;;;460.90;2380.80;;;;;;5092104;28;20044;-82
2023/07/09 03:03:52;;;;;;;10.93;7.45;;;461.00;2380.80;;;;;;5091810;28;20033;-80
2023/07/09 03:06:20;;;;;;;9.68;6.80;;;461.00;2380.80;;;;;;5091886;28;20086;-82
2023/07/09 03:08:46;;;;;;;11.65;7.43;;;461.00;2380.80;;;;;;5091626;28;20102;-82
2023/07/09 03:11:13;;;;;;;10.25;7.25;;;460.90;2380.80;;;;;;5092008;28;20436;-82
2023/07/09 03:13:39;;;;;;;10.05;6.75;;;460.90;2380.80;;;;;;5091491;28;20028;-83
2023/07/09 03:16:05;;;;;;;8.10;7.28;;;460.90;2380.80;;;;;;5074520;28;20524;-78
2023/07/09 03:18:31;;;;;;;9.27;7.38;;;460.80;2380.80;;;;;;5074878;28;20035;-81
2023/07/09 03:20:58;;;;;;;11.75;7.55;;;460.80;2380.80;;;;;;5091832;28;20059;-80
2023/07/09 03:23:23;;;;;;;10.77;7.15;;;460.80;2380.80;;;;;;5074492;28;20039;-83
2023/07/09 03:25:49;;;;;;;10.07;7.45;;;436.10;2355.20;;;;;;5090593;28;20025;-82
2023/07/09 03:28:15;;;;;;;10.85;8.27;;;436.10;2355.20;;;;;;5091435;28;20360;-80
2023/07/09 03:30:42;;;;;;;16.77;7.90;;;436.10;2355.20;;;;;;5091135;28;20105;-80
2023/07/09 03:33:09;;;;;;;10.40;7.15;;;460.80;2380.80;;;;;;5075897;28;20074;-81
2023/07/09 03:35:36;;;;;;;11.05;7.68;;;460.80;2380.80;;;;;;5091681;28;20119;-82
2023/07/09 03:38:02;;;;;;;9.70;7.43;;;436.10;2355.20;;;;;;5091149;28;20456;-81
2023/07/09 03:40:28;;;;;;;9.20;8.00;;;460.80;2380.80;;;;;;5093152;28;20051;-82
2023/07/09 03:42:53;;;;;;;13.43;7.88;;;460.90;2380.80;;;;;;5091340;28;20114;-81
2023/07/09 03:45:19;;;;;;;11.18;8.18;;;460.80;2380.80;;;;;;5074135;28;20052;-82
2023/07/09 03:47:45;;;;;;;9.90;7.28;;;460.80;2380.80;;;;;;5075566;28;20467;-82
2023/07/09 03:50:11;;;;;;;8.77;7.50;;;460.80;2380.80;;;;;;5091218;28;20035;-82
2023/07/09 03:52:37;;;;;;;11.32;7.60;;;436.10;2355.20;;;;;;5090682;28;20029;-82
2023/07/09 03:55:06;;;;;;;10.70;7.93;;;460.80;2380.80;;;;;;5075433;28;20056;-81
2023/07/09 03:57:33;;;;;;;11.57;6.78;;;460.80;2380.80;;;;;;5075538;28;20055;-81
2023/07/09 03:59:58;;;;;;;12.63;7.20;;;435.80;2355.20;;;;;;5090420;28;20116;-81
2023/07/09 04:02:24;;;;;;;10.98;7.55;;;460.80;2380.80;;;;;;5092130;28;20475;-81
2023/07/09 04:04:50;;;;;;;12.82;7.63;;;460.90;2380.80;;;;;;5075106;28;20060;-81
2023/07/09 04:07:16;;;;;;;13.55;7.35;;;436.10;2355.20;;;;;;5095027;28;20031;-81
2023/07/09 04:09:42;;;;;;;14.70;7.00;;;436.10;2355.20;;;;;;5076207;28;20189;-81
2023/07/09 04:12:09;;;;;;;10.57;7.32;;;436.10;2355.20;;;;;;5090467;28;20021;-81
2023/07/09 04:14:35;;;;;;;9.00;6.72;;;460.80;2380.80;;;;;;5090695;28;20480;-81
2023/07/09 04:17:01;;;;;;;9.65;7.13;;;460.90;2380.80;;;;;;5075122;28;20031;-80
2023/07/09 04:19:27;;;;;;;12.45;7.28;;;461.00;2380.80;;;;;;5090307;28;20020;-81
2023/07/09 04:21:53;;;;;;;9.45;7.00;;;461.00;2380.80;;;;;;5090883;28;20237;-81
2023/07/09 04:24:20;;;;;;;11.88;7.72;;;461.00;2380.80;;;;;;5073664;28;20024;-81
2023/07/09 04:26:46;;;;;;;11.13;6.75;;;461.10;2380.80;;;;;;5074642;28;20024;-81
2023/07/09 04:29:14;;;;;;;9.50;7.10;;;461.10;2380.80;;;;;;5091248;28;20048;-81
2023/07/09 04:31:41;;;;;;;9.32;7.05;;;461.10;2380.80;;;;;;5091146;28;20024;-82
2023/07/09 04:34:07;;;;;;;10.55;6.72;;;461.10;2380.80;;;;;;5096261;28;20088;-79
2023/07/09 04:36:33;;;;;;;9.05;7.03;;;461.20;2380.80;;;;;;5107348;28;20048;-81
2023/07/09 04:39:00;;;;;;;9.40;7.05;;;461.20;2380.80;;;;;;5090632;28;20032;-81
2023/07/09 04:41:25;;;;;;;8.27;6.63;;;461.20;2380.80;;;;;;5073402;28;20036;-81
2023/07/09 04:43:51;;;;;;;13.25;7.55;;;461.10;2380.80;;;;;;5090686;28;20028;-82
2023/07/09 04:46:17;;;;;;;10.88;7.20;;;461.30;2380.80;;;;;;5090618;28;20032;-82
2023/07/09 04:48:43;;;;;;;8.77;7.10;;;461.20;2380.80;;;;;;5091068;28;20025;-82
2023/07/09 04:51:09;;;;;;;11.32;6.95;;;461.20;2380.80;;;;;;5090861;28;20028;-81
2023/07/09 04:53:34;;;;;;;9.32;6.65;;;461.20;2380.80;;;;;;5075022;28;20116;-81
2023/07/09 04:56:02;;;;;;;9.90;7.18;;;461.30;2380.80;;;;;;5074585;28;20032;-82
2023/07/09 04:58:29;;;;;;;9.88;7.97;;;461.30;2380.80;;;;;;5089818;28;20021;-81
2023/07/09 05:00:59;;;;;;;10.88;6.57;;;461.50;2380.80;;;;;;5089898;28;20029;-82
2023/07/09 05:03:25;;;;;;;8.18;7.05;;;461.50;2380.80;;;;;;5073946;28;20468;-82
2023/07/09 05:05:50;;;;;;;8.73;6.85;;;461.50;2380.80;;;;;;5089993;28;20056;-82
2023/07/09 05:08:17;;;;;;;11.45;6.97;;;461.60;2380.80;;;;;;5073820;28;20079;-82
2023/07/09 05:10:44;;;;;;;8.88;7.00;;;461.70;2380.80;;;;;;5089647;28;20373;-82
2023/07/09 05:13:10;;;;;;;11.02;7.30;;;486.40;2380.80;;;;;;5073619;28;20047;-81
2023/07/09 05:15:40;;;;;;;9.63;6.60;;;486.40;2380.80;;;;;;5073912;28;20079;-82
2023/07/09 05:18:07;;;;;;;11.55;6.85;;;486.50;2380.80;;;;;;5089829;28;20424;-82
2023/07/09 05:20:33;;;;;;;10.25;8.02;;;486.50;2380.80;;;;;;5089439;28;20039;-82
2023/07/09 05:22:59;;;;;;;8.25;6.90;;;486.40;2380.80;;;;;;5089361;28;20055;-81
2023/07/09 05:25:25;;;;;;;9.98;6.22;;;486.50;2380.80;;;;;;5072772;28;20490;-82
2023/07/09 05:27:51;;;;;;;9.32;6.93;;;486.60;2380.80;;;;;;5072629;28;20052;-81
2023/07/09 05:30:20;;;;;;;9.07;6.93;;;486.70;2380.80;;;;;;5089997;28;20028;-81
2023/07/09 05:32:47;;;;;;;10.65;7.30;;;486.70;2380.80;;;;;;5089374;28;20093;-81
2023/07/09 05:35:13;;;;;;;7.90;6.78;;;486.70;2380.80;;;;;;5089451;28;20028;-82
2023/07/09 05:37:39;;;;;;;10.98;7.03;;;486.80;2380.80;;;;;;5074645;28;20024;-81
2023/07/09 05:40:07;;;;;;;9.50;6.80;;;486.80;2380.80;;;;;;5095484;28;20032;-82
2023/07/09 05:42:33;;;;;;;12.40;6.70;;;486.70;2380.80;;;;;;5078823;28;20033;-82
2023/07/09 05:44:59;;;;;;;8.57;6.78;;;486.80;2380.80;;;;;;5091964;28;20135;-82
2023/07/09 05:47:26;;;;;;;9.32;5.95;;;486.80;2380.80;;;;;;5089083;28;20036;-80
2023/07/09 05:49:52;;;;;;;7.43;6.13;;;486.90;2380.80;;;;;;5077452;28;20035;-80
2023/07/09 05:52:22;;;;;;;9.82;7.00;;;487.00;2380.80;;;;;;5094778;28;20459;-80
2023/07/09 05:54:49;;;;;;;9.27;6.30;;;487.20;2380.80;;;;;;5076630;28;20060;-80
2023/07/09 05:57:16;;;;;;;13.38;6.85;;;487.20;2380.80;;;;;;5092869;28;20028;-80
2023/07/09 05:59:42;;;;;;;11.48;7.25;;;512.10;2380.80;;;;;;5092376;28;20353;-80
2023/07/09 06:02:12;;;;;;;9.98;6.40;;;512.30;2380.80;;;;;;5089186;28;20029;-81
2023/07/09 06:04:38;;;;;;;7.18;6.13;;;512.40;2380.80;;;;;;5091516;28;20371;-80
2023/07/09 06:07:04;;;;;;;11.85;6.45;;;512.60;2380.80;;;;;;5093292;28;20120;-80
2023/07/09 06:09:31;;;;;;;8.93;6.40;;;512.70;2380.80;;;;;;5088518;28;20435;-81
2023/07/09 06:11:57;;;;;;;9.63;6.13;;;512.70;2380.80;;;;;;5073804;28;20445;-81
2023/07/09 06:14:24;;;;;;;10.13;6.85;;;512.80;2380.80;;;;;;5089202;28;20365;-81
2023/07/09 06:16:49;;;;;;;8.27;6.72;;;537.60;2406.40;;;;;;5088767;28;20063;-81
2023/07/09 06:19:15;;;;;;;11.85;6.30;;;537.70;2406.40;;;;;;5092614;28;20056;-81
2023/07/09 06:21:41;;;;;;;10.23;6.60;;;537.70;2406.40;;;;;;5088199;28;20029;-81
2023/07/09 06:24:08;;;;;;;9.05;6.82;;;537.90;2406.40;;;;;;5073143;28;20476;-80
2023/07/09 06:26:34;;;;;;;10.27;6.50;;;538.00;2406.40;;;;;;5088327;28;20051;-79
2023/07/09 06:29:00;;;;;;;9.63;6.38;;;538.10;2406.40;;;;;;5088917;28;20021;-79
2023/07/09 06:31:26;;;;;;;20.17;6.90;;;538.20;2406.40;;;;;;5092730;28;20052;-79
2023/07/09 06:33:52;;;;;;;11.60;6.95;;;538.30;2406.40;;;;;;5092913;28;20456;-80
2023/07/09 06:36:19;;;;;;;23.05;14.38;;;538.20;2406.40;;;;;;5092497;28;20118;-80
2023/07/09 06:38:45;;;;;;;11.60;6.63;;;538.50;2406.40;;;;;;5091934;28;20024;-79
2023/07/09 06:41:12;;;;;;;11.35;8.50;;;563.20;2432.00;;;;;;5093088;28;20039;-79
2023/07/09 06:43:41;;;;;;;11.98;7.15;;;563.20;2432.00;;;;;;5092934;28;20494;-79
2023/07/09 06:46:10;;;;;;;11.15;6.75;;;538.50;2406.40;;;;;;5091223;28;20463;-80
2023/07/09 06:48:36;;;;;;;12.85;9.80;;;538.50;2406.40;;;;;;5092582;28;20059;-79
2023/07/09 06:51:02;;;;;;;16.25;11.55;;;563.20;2432.00;;;;;;5093096;28;20533;-81
2023/07/09 06:53:29;;;;;;;10.85;6.95;;;563.40;2432.00;;;;;;5092113;28;20162;-80
2023/07/09 06:55:58;;;;;;;12.82;6.22;;;563.50;2432.00;;;;;;5093414;28;20024;-81
2023/07/09 06:58:27;;;;;;;11.60;6.93;;;563.80;2432.00;;;;;;5092033;28;20028;-79
2023/07/09 07:00:56;;;;;;;11.10;6.45;;;563.90;2432.00;;;;;;5096386;28;20073;-80
2023/07/09 07:03:25;;;;;;;8.90;6.25;;;563.80;2432.00;;;;;;5095244;28;20032;-79
2023/07/09 07:05:53;;;;;;;13.10;7.00;;;563.80;2432.00;;;;;;5095328;28;20032;-79
2023/07/09 07:08:22;;;;;;;9.98;6.35;;;564.00;2432.00;;;;;;5096244;28;20040;-79
2023/07/09 07:10:50;;;;;;;8.77;6.25;;;588.80;2432.00;;;;;;5095008;28;20074;-79
2023/07/09 07:13:16;;;;;;;9.35;5.97;;;589.10;2432.00;;;;;;5096581;28;20375;-82
2023/07/09 07:15:47;;;;;;;9.25;6.30;;;589.40;2432.00;;;;;;5096016;28;20097;-82
2023/07/09 07:18:13;;;;;;;12.40;6.03;;;589.40;2432.00;;;;;;5094717;28;20051;-81
2023/07/09 07:20:39;;;;;;;7.07;5.55;;;589.50;2432.00;;;;;;5094574;28;20063;-81
2023/07/09 07:23:05;;;;;;;11.05;5.78;;;589.70;2432.00;;;;;;5095181;28;20032;-82
2023/07/09 07:25:32;;;;;;;7.88;5.35;;;614.50;2432.00;;;;;;5095152;28;20388;-81
2023/07/09 07:27:58;;;;;;;11.05;5.63;;;614.70;2432.00;;;;;;5094462;28;20032;-82
2023/07/09 07:30:24;;;;;;;7.43;5.03;;;614.90;2432.00;;;;;;5093722;28;20024;-82
2023/07/09 07:32:50;;;;;;;7.00;5.20;;;614.60;2432.00;;;;;;5093927;28;20024;-81
2023/07/09 07:35:34;;;;;;;7.65;4.80;;;614.80;2432.00;;;;;;5109353;28;20091;-85
2023/07/09 07:37:59;;;;;;;9.15;5.25;;;614.80;2432.00;;;;;;5105853;28;20024;-83
2023/07/09 07:40:25;;;;;;;11.98;5.35;;;614.90;2432.00;;;;;;5099852;28;20040;-83
2023/07/09 07:42:51;;;;;;;9.43;4.85;;;615.00;2432.00;;;;;;5096937;28;20035;-83
2023/07/09 07:45:17;;;;;;;9.13;5.82;;;615.10;2432.00;;;;;;5097587;28;20024;-84
2023/07/09 07:47:43;;;;;;;8.25;4.57;;;615.30;2432.00;;;;;;5096339;28;20055;-84
2023/07/09 07:50:10;;;;;;;9.65;4.90;;;640.00;2432.00;;;;;;5095714;28;20468;-82
2023/07/09 07:52:37;;;;;;;8.75;4.90;;;640.10;2432.00;;;;;;5114482;28;20031;-81
2023/07/09 07:55:07;;;;;;;11.00;5.10;;;640.20;2432.00;;;;;;5112732;28;20034;-82
2023/07/09 07:57:34;;;;;;;8.23;5.20;;;640.40;2432.00;;;;;;5105254;28;20028;-83
2023/07/09 07:59:59;;;;;;;7.78;4.53;;;640.40;2432.00;;;;;;5091304;28;20077;-83
2023/07/09 08:02:25;;;;;;;7.38;4.93;;;640.50;2432.00;;;;;;5091948;28;20104;-83
2023/07/09 08:04:51;;;;;;;11.18;4.78;;;640.60;2432.00;;;;;;5091241;28;20357;-83
2023/07/09 08:07:18;;;;;;;6.47;4.75;;;640.70;2432.00;;;;;;5075117;28;20028;-83
2023/07/09 08:09:46;;;;;;;6.88;4.15;;;665.60;2432.00;;;;;;5091670;28;20045;-82
2023/07/09 08:12:12;;;;;;;7.70;4.28;;;640.90;2432.00;;;;;;5090946;28;20459;-84
2023/07/09 08:14:44;;;;;;;11.90;4.07;;;665.70;2432.00;;;;;;5091900;28;20108;-81
2023/07/09 08:17:10;;;;;;;7.13;3.30;;;665.90;2406.40;;;;;;5090899;28;20031;-81
2023/07/09 08:19:56;;;;;;;6.80;4.03;;;666.00;2329.60;;;;;;5090712;28;20037;-80
2023/07/09 08:22:22;;;;;;;8.15;4.93;;;666.00;2355.20;;;;;;5090367;28;20121;-82
2023/07/09 08:24:51;;;;;;;8.57;4.30;;;666.00;2406.40;;;;;;5090437;28;20033;-81
2023/07/09 08:27:19;;;;;;;8.38;4.47;;;666.20;2355.20;;;;;;5090311;28;20032;-81
2023/07/09 08:29:45;;;;;;;7.22;4.10;;;666.30;2355.20;;;;;;5090138;28;20028;-81
2023/07/09 08:32:11;;;;;;;8.98;4.35;;;666.20;2329.60;;;;;;5089602;28;20025;-81
2023/07/09 08:34:42;;;;;;;7.45;5.60;;;666.50;2304.00;;;;;;5089962;28;20070;-84
2023/07/09 08:37:08;;;;;;;12.60;4.78;;;691.40;2329.60;;;;;;5090633;28;20143;-82
2023/07/09 08:39:35;;;;;;;8.27;4.68;;;691.70;2304.00;;;;;;5091275;28;20024;-82
2023/07/09 08:42:10;;;;;;;7.97;5.70;;;691.90;2304.00;;;;;;5091495;28;20421;-81
2023/07/09 08:45:07;;;;;;;8.35;4.25;;;716.80;2329.60;;;;;;5091200;28;20028;-82
2023/07/09 08:47:36;;;;;;;8.57;3.58;;;716.90;2252.80;;;;;;5096257;28;20024;-82
2023/07/09 08:50:22;;;;;;;7.18;3.30;;;717.10;2176.00;;;;;;5108914;28;20031;-82
2023/07/09 08:52:50;;;;;;;6.18;3.78;;;716.80;2150.40;;;;;;5122751;27;20020;-82
2023/07/09 08:55:20;;;;;;;6.68;3.65;;;692.10;2099.20;;;;;;5094713;28;20020;-82
2023/07/09 08:57:54;;;;;;;4.65;2.95;;;692.10;2048.00;;;;;;5093877;28;20028;-82
2023/07/09 09:00:41;;;;;;;4.90;2.67;;;717.20;1945.60;;;;;;5094128;28;20116;-82
2023/07/09 09:03:13;;;;;;;7.28;2.67;;;717.20;1945.60;;;;;;5095278;28;20034;-82
2023/07/09 09:05:43;;;;;;;6.00;2.90;;;717.30;1920.00;;;;;;5093964;28;20031;-82
2023/07/09 09:08:53;;;;;;;4.45;2.85;;;717.70;1945.60;;;;;;5096027;28;20032;-81
2023/07/09 09:11:23;;;;;;;5.22;2.88;;;;;;;;;;5081825;28;20085;-80
2023/07/09 09:13:52;;;;;;;4.78;2.72;;;742.70;1868.80;;;;;;5093146;28;20065;-81
2023/07/09 09:16:24;;;;;;;4.82;2.50;;;742.70;1894.40;;;;;;5094066;28;20401;-82
2023/07/09 09:18:49;;;;;;;;;;;742.90;1868.80;;;;;;5094106;28;20090;-83
2023/07/09 09:21:25;;;;;;;3.60;2.20;;;742.90;1817.60;;;;;;5092907;28;20368;-82
2023/07/09 09:24:16;;;;;;;5.78;2.40;;;743.00;1817.60;;;;;;5095914;28;20042;-83
2023/07/09 09:26:44;;;;;;;5.93;3.03;;;743.00;1817.60;;;;;;5094774;28;20020;-81
2023/07/09 09:29:15;;;;;;;7.18;3.40;;;743.00;1843.20;;;;;;5093813;28;20093;-82
2023/07/09 09:31:45;;;;;;;3.67;2.28;;;742.80;1868.80;;;;;;5094884;28;20047;-82
2023/07/09 09:34:27;;;;;;;4.95;2.70;;;742.80;1868.80;;;;;;5093736;28;20119;-82
2023/07/09 09:36:54;;;;;;;4.85;3.28;;;742.80;1843.20;;;;;;5094588;28;20491;-83
2023/07/09 09:39:20;;;;;;;5.15;2.92;;;742.90;1843.20;;;;;;5093550;28;20081;-83
2023/07/09 09:41:47;;;;;;;6.03;3.17;;;743.00;1792.00;;;;;;5093492;28;20065;-81
2023/07/09 09:44:21;;;;;;;4.85;2.75;;;742.80;1817.60;;;;;;5092997;28;20486;-81
2023/07/09 09:46:50;;;;;;;5.95;3.20;;;742.80;1817.60;;;;;;5086118;28;20028;-81
2023/07/09 09:49:16;;;;;;;5.80;3.72;;;742.90;1817.60;;;;;;5093022;28;20028;-84
2023/07/09 09:51:46;;;;;;;4.82;2.40;;;743.20;1817.60;;;;;;5092628;28;20399;-82
2023/07/09 09:54:16;;;;;;;5.28;3.08;;;;;;;;;;5092657;28;20027;-82
2023/07/09 09:56:43;;;;;;;5.45;3.13;;;;;;;;;;5094148;28;20024;-82
2023/07/09 09:59:32;;;;;;;5.38;3.08;;;743.10;1843.20;;;;;;5093130;28;20020;-83
2023/07/09 10:02:00;;;;;;;8.02;3.40;;;743.00;1868.80;;;;;;5093906;28;20032;-81
2023/07/09 10:04:27;;;;;;;3.78;2.40;;;;;;;;;;5095783;28;20032;-82
2023/07/09 10:06:56;;;;;;;5.72;2.80;;;768.10;1817.60;;;;;;5094813;28;20020;-83
2023/07/09 10:09:46;;;;;;;4.75;2.58;;;768.30;1817.60;;;;;;5094318;28;20044;-84
2023/07/09 10:12:30;;;;;;;5.18;2.63;;;768.70;1766.40;;;;;;5109728;28;20016;-84
2023/07/09 10:15:19;;;;;;;9.38;2.53;;;768.60;1766.40;;;;;;5089214;28;20036;-84
2023/07/09 10:17:45;;;;;;;5.20;2.90;;;;;;;;;;5091912;28;20507;-84
2023/07/09 10:20:32;;;;;;;7.75;2.70;;;;;;;;;;5094461;28;20039;-84
2023/07/09 10:23:17;;;;;;;7.00;4.15;;;;;;;;;;5097218;28;20024;-82
2023/07/09 10:25:53;;;;;;;5.30;3.10;;;;;;;;;;5092748;28;20084;-82
2023/07/09 10:28:39;;;;;;;5.13;2.90;;;;;;;;;;5092313;28;20016;-83
2023/07/09 10:31:28;;;;;;;7.95;3.30;;;;;;;;;;5092380;28;20352;-83
2023/07/09 10:34:01;;;;;;;7.50;2.55;;;794.50;1792.00;;;;;;5087924;28;20062;-84
2023/07/09 10:36:33;;;;;;;6.57;3.10;;;794.50;1792.00;;;;;;5097110;28;20456;-84
2023/07/09 10:39:02;;;;;;;5.50;3.08;;;819.20;1792.00;;;;;;5096435;28;20024;-84
2023/07/09 10:41:29;;;;;;;6.53;3.92;;;794.50;1766.40;;;;;;5104725;28;20020;-82
2023/07/09 10:44:08;;;;;;;7.82;2.90;;;;;;;;;;5117583;28;20036;-83
2023/07/09 10:46:35;;;;;;;6.93;3.20;;;;;;;;;;5100213;28;20020;-84
2023/07/09 10:49:05;;;;;;;4.90;2.67;;;;;;;;;;5098804;28;20059;-83
2023/07/09 10:51:33;;;;;;;4.35;2.78;;;;;;;;;;5096879;28;20016;-84
2023/07/09 10:54:12;;;;;;;5.05;3.05;;;;;;;;;;5095489;28;20559;-83
2023/07/09 10:56:39;;;;;;;6.28;2.80;;;;;;;;;;5095754;28;20093;-84
2023/07/09 10:59:14;;;;;;;13.25;4.28;;;;;;;;;;5096624;28;20031;-85
2023/07/09 11:01:42;;;;;;;6.97;3.30;;;;;;;;;;5095348;28;20028;-84
2023/07/09 11:04:14;;;;;;;7.15;3.70;;;;;;;;;;5093837;28;20017;-84
2023/07/09 11:06:43;;;;;;;10.32;3.83;;;;;;;;;;5095251;28;20024;-81
2023/07/09 11:09:29;;;;;;;9.02;4.75;;;;;;;;;;5094930;28;20043;-84
2023/07/09 11:11:56;;;;;;;7.53;4.10;;;;;;;;;;5094944;28;20020;-85
2023/07/09 11:14:27;;;;;;;4.95;3.30;;;819.80;1689.60;;;;;;5095229;28;20047;-86
2023/07/09 11:16:56;;;;;;;4.63;2.50;;;819.80;1740.80;;;;;;5095617;28;20027;-85
2023/07/09 11:19:22;;;;;;;5.03;2.58;;;819.80;1689.60;;;;;;5095193;28;20032;-85
2023/07/09 11:22:14;;;;;;;6.18;2.53;;;819.80;1715.20;;;;;;5095455;28;20077;-85
2023/07/09 11:25:09;;;;;;;4.57;2.83;;;819.70;1715.20;;;;;;5095565;28;20028;-86
2023/07/09 11:28:02;;;;;;;6.55;3.15;;;819.70;1689.60;;;;;;5095442;28;20028;-87
2023/07/09 11:30:29;;;;;;;4.38;2.40;;;819.80;1715.20;;;;;;5094865;28;20032;-82
2023/07/09 11:33:05;;;;;;;4.25;2.42;;;;;;;;;;5095174;28;20119;-85
2023/07/09 11:35:51;;;;;;;4.40;2.53;;;;;;;;;;5095491;28;20462;-83
2023/07/09 11:38:19;;;;;;;5.88;2.60;;;;;;;;;;5094848;28;20020;-84
2023/07/09 11:40:49;;;;;;;5.13;2.17;;;;;;;;;;5094810;28;20042;-85
2023/07/09 11:43:48;;;;;;;4.80;2.53;;;;;;;;;;5094986;28;20434;-84
2023/07/09 11:46:17;;;;;;;4.57;2.83;;;;;;;;;;5055360;28;20119;-84
2023/07/09 11:48:44;;;;;;;6.53;3.03;;;;;;;;;;5056377;28;20028;-84
2023/07/09 11:51:26;;;;;;;5.85;3.10;;;;;;;;;;5056432;28;20560;-84
2023/07/09 11:53:55;;;;;;;5.90;3.13;;;;;;;;;;5056219;28;20058;-85
2023/07/09 11:56:23;;;;;;;6.68;2.75;;;;;;;;;;5056983;28;20028;-82
2023/07/09 11:58:56;;;;;;;6.70;2.90;;;;;;;;;;5056691;28;20024;-83
2023/07/09 12:01:27;;;;;;;5.10;2.25;;;;;;;;;;5056949;28;20032;-85
2023/07/09 12:03:53;;;;;;;4.75;2.45;;;;;;;;;;5057954;28;20040;-84
2023/07/09 12:06:22;;;;;;;4.57;2.50;;;;;;;;;;5072983;28;20024;-84
2023/07/09 12:08:49;;;;;;;5.88;2.45;;;;;;;;;;5055494;28;20069;-85
2023/07/09 12:11:32;;;;;;;5.70;3.10;;;;;;;;;;5056611;28;20028;-83
2023/07/09 12:14:05;;;;;;;5.05;2.60;;;;;;;;;;5056877;28;20074;-84
2023/07/09 12:16:36;;;;;;;5.00;2.78;;;;;;;;;;5056289;28;20028;-83
2023/07/09 12:19:02;;;;;;;;;;;;;;;;;;5057022;28;20031;-84
2023/07/09 12:21:30;;;;;;;4.20;2.30;;;;;;;;;;5067085;28;19908;-83
2023/07/09 12:24:02;;;;;;;4.45;2.35;;;;;;;;;;5094467;28;20073;-86
2023/07/09 12:26:31;;;;;;;4.35;3.00;;;;;;;;;;5096108;28;20031;-90
2023/07/09 12:29:05;;;;;;;5.10;2.58;;;;;;;;;;5091028;28;20035;-88
2023/07/09 12:31:32;;;;;;;4.82;2.65;;;;;;;;;;5092086;28;20025;-87
2023/07/09 12:33:59;;;;;;;3.53;2.47;;;;;;;;;;5091053;28;20048;-85
2023/07/09 12:36:26;;;;;;;4.18;2.53;;;;;;;;;;5092328;28;20024;-85
2023/07/09 12:38:54;;;;;;;5.30;2.38;;;;;;;;;;5092407;28;20159;-86
2023/07/09 12:41:40;;;;;;;5.53;2.72;;;;;;;;;;5091577;28;20033;-84
2023/07/09 12:44:16;;;;;;;5.00;2.72;;;;;;;;;;5094404;28;20032;-91
2023/07/09 12:46:46;;;;;;;5.25;2.78;;;;;;;;;;5090847;28;20024;-88